createdAt,value
2018-06-29T00:00:00.145Z,101319.42
2018-06-29T00:02:28.695Z,101313.52
2018-06-29T00:04:57.157Z,101309.16
2018-06-29T00:07:25.702Z,101317.02
2018-06-29T00:09:54.164Z,101317.39
2018-06-29T00:12:22.554Z,101312.25
2018-06-29T00:14:50.989Z,101310.63
2018-06-29T00:17:19.506Z,101301.52
2018-06-29T00:19:47.914Z,101302.03
2018-06-29T00:22:17.005Z,101309.11
2018-06-29T00:24:45.432Z,101309.52
2018-06-29T00:27:13.860Z,101286.02
2018-06-29T00:29:42.815Z,101301.98
2018-06-29T00:32:11.247Z,101300.67
2018-06-29T00:34:39.661Z,101305.92
2018-06-29T00:37:08.046Z,101301.34
2018-06-29T00:39:36.442Z,101297.59
2018-06-29T00:42:04.864Z,101297.70
2018-06-29T00:44:33.304Z,101304.25
2018-06-29T00:47:01.680Z,101307.78
2018-06-29T00:49:30.108Z,101306.95
2018-06-29T00:51:58.555Z,101307.36
2018-06-29T00:54:27.117Z,101300.00
2018-06-29T00:56:55.580Z,101307.27
2018-06-29T00:59:23.985Z,101304.44
2018-06-29T01:01:52.413Z,101304.16
2018-06-29T01:04:20.816Z,101297.69
2018-06-29T01:06:49.264Z,101306.89
2018-06-29T01:09:18.391Z,101302.46
2018-06-29T01:11:46.847Z,101300.34
2018-06-29T01:14:15.285Z,101302.65
2018-06-29T01:16:43.664Z,101302.20
2018-06-29T01:19:12.065Z,101290.95
2018-06-29T01:21:40.491Z,101289.20
2018-06-29T01:24:08.950Z,101294.84
2018-06-29T01:26:37.411Z,101294.94
2018-06-29T01:29:05.808Z,101295.80
2018-06-29T01:31:34.195Z,101286.64
2018-06-29T01:34:02.641Z,101280.11
2018-06-29T01:36:31.060Z,101276.23
2018-06-29T01:38:59.448Z,101280.77
2018-06-29T01:41:27.982Z,101280.45
2018-06-29T01:43:56.375Z,101281.04
2018-06-29T01:46:24.787Z,101273.78
2018-06-29T01:48:53.252Z,101279.50
2018-06-29T01:51:21.640Z,101280.09
2018-06-29T01:53:50.060Z,101270.34
2018-06-29T01:56:18.514Z,101274.23
2018-06-29T01:58:46.887Z,101274.81
2018-06-29T02:01:15.296Z,101275.20
2018-06-29T02:03:43.756Z,101272.47
2018-06-29T02:06:12.178Z,101281.91
2018-06-29T02:08:40.591Z,101287.05
2018-06-29T02:11:09.012Z,101285.31
2018-06-29T02:13:37.441Z,101280.13
2018-06-29T02:16:05.848Z,101273.70
2018-06-29T02:18:34.304Z,101277.25
2018-06-29T02:21:02.730Z,101284.92
2018-06-29T02:23:31.348Z,101282.50
2018-06-29T02:25:59.781Z,101284.22
2018-06-29T02:28:28.239Z,101279.98
2018-06-29T02:30:56.641Z,101278.71
2018-06-29T02:33:25.074Z,101270.45
2018-06-29T02:35:53.482Z,101275.70
2018-06-29T02:38:21.902Z,101276.11
2018-06-29T02:40:50.247Z,101278.69
2018-06-29T02:43:18.669Z,101279.47
2018-06-29T02:45:47.058Z,101269.55
2018-06-29T02:48:15.459Z,101270.53
2018-06-29T02:50:43.924Z,101269.84
2018-06-29T02:53:12.374Z,101273.92
2018-06-29T02:55:40.816Z,101271.42
2018-06-29T02:58:09.245Z,101272.59
2018-06-29T03:00:38.160Z,101272.62
2018-06-29T03:03:06.545Z,101276.56
2018-06-29T03:05:34.969Z,101277.91
2018-06-29T03:08:03.380Z,101269.39
2018-06-29T03:10:31.940Z,101269.15
2018-06-29T03:13:00.336Z,101275.65
2018-06-29T03:15:28.744Z,101272.86
2018-06-29T03:17:57.137Z,101272.88
2018-06-29T03:20:25.581Z,101274.16
2018-06-29T03:22:53.973Z,101267.59
2018-06-29T03:25:22.405Z,101275.70
2018-06-29T03:27:50.912Z,101268.63
2018-06-29T03:30:19.324Z,101276.81
2018-06-29T03:32:47.737Z,101275.13
2018-06-29T03:35:16.182Z,101271.96
2018-06-29T03:37:44.615Z,101281.64
2018-06-29T03:40:13.089Z,101278.70
2018-06-29T03:42:41.528Z,101279.52
2018-06-29T03:45:09.958Z,101270.75
2018-06-29T03:47:38.352Z,101277.09
2018-06-29T03:50:06.907Z,101280.53
2018-06-29T03:52:35.389Z,101267.13
2018-06-29T03:55:03.853Z,101277.50
2018-06-29T03:57:32.259Z,101266.86
2018-06-29T04:00:00.891Z,101268.93
2018-06-29T04:02:29.353Z,101263.78
2018-06-29T04:04:57.775Z,101265.96
2018-06-29T04:07:26.176Z,101267.77
2018-06-29T04:09:54.586Z,101264.87
2018-06-29T04:12:22.995Z,101262.22
2018-06-29T04:14:51.417Z,101272.91
2018-06-29T04:17:19.848Z,101268.53
2018-06-29T04:19:48.276Z,101262.83
2018-06-29T04:22:16.692Z,101255.44
2018-06-29T04:24:45.112Z,101258.80
2018-06-29T04:27:13.531Z,101252.27
2018-06-29T04:29:41.937Z,101254.34
2018-06-29T04:32:10.347Z,101258.60
2018-06-29T04:34:38.752Z,101259.02
2018-06-29T04:37:07.201Z,101251.70
2018-06-29T04:39:35.830Z,101255.03
2018-06-29T04:42:04.253Z,101255.41
2018-06-29T04:44:32.683Z,101252.35
2018-06-29T04:47:01.111Z,101249.78
2018-06-29T04:49:29.510Z,101251.98
2018-06-29T04:51:57.954Z,101251.98
2018-06-29T04:54:26.321Z,101249.80
2018-06-29T04:56:54.729Z,101251.54
2018-06-29T04:59:23.150Z,101252.39
2018-06-29T05:01:51.543Z,101257.15
2018-06-29T05:04:19.964Z,101253.19
2018-06-29T05:06:48.353Z,101258.84
2018-06-29T05:09:16.784Z,101250.56
2018-06-29T05:11:45.212Z,101245.36
2018-06-29T05:14:13.650Z,101246.16
2018-06-29T05:16:42.150Z,101254.38
2018-06-29T05:19:10.582Z,101255.63
2018-06-29T05:21:39.052Z,101260.84
2018-06-29T05:24:12.251Z,101254.32
2018-06-29T05:26:40.713Z,101258.58
2018-06-29T05:29:09.155Z,101255.48
2018-06-29T05:31:37.876Z,101254.56
2018-06-29T05:34:06.287Z,101260.14
2018-06-29T05:36:34.666Z,101259.66
2018-06-29T05:39:03.120Z,101262.25
2018-06-29T05:41:31.724Z,101265.62
2018-06-29T05:44:00.134Z,101262.12
2018-06-29T05:46:28.530Z,101265.96
2018-06-29T05:48:57.173Z,101263.38
2018-06-29T05:51:25.588Z,101256.87
2018-06-29T05:53:53.953Z,101259.42
2018-06-29T05:56:22.388Z,101263.29
2018-06-29T05:58:50.772Z,101270.14
2018-06-29T06:01:19.281Z,101269.65
2018-06-29T06:03:47.673Z,101273.93
2018-06-29T06:06:16.053Z,101265.26
2018-06-29T06:08:44.513Z,101260.03
2018-06-29T06:11:13.412Z,101267.77
2018-06-29T06:14:05.496Z,101259.53
2018-06-29T06:16:33.875Z,101262.08
2018-06-29T06:19:13.459Z,101262.55
2018-06-29T06:21:41.932Z,101262.99
2018-06-29T06:24:10.424Z,101271.11
2018-06-29T06:26:39.128Z,101270.67
2018-06-29T06:29:07.581Z,101271.08
2018-06-29T06:31:35.969Z,101279.29
2018-06-29T06:34:04.442Z,101280.50
2018-06-29T06:36:33.136Z,101287.77
2018-06-29T06:39:01.550Z,101272.16
2018-06-29T06:41:30.288Z,101280.75
2018-06-29T06:43:58.762Z,101282.05
2018-06-29T06:46:27.169Z,101284.64
2018-06-29T06:48:55.547Z,101294.12
2018-06-29T06:51:23.985Z,101293.09
2018-06-29T06:53:52.412Z,101288.75
2018-06-29T06:56:20.912Z,101285.27
2018-06-29T06:58:49.324Z,101292.97
2018-06-29T07:01:17.747Z,101292.47
2018-06-29T07:03:46.129Z,101289.42
2018-06-29T07:06:14.566Z,101290.19
2018-06-29T07:08:43.057Z,101285.34
2018-06-29T07:11:11.473Z,101281.02
2018-06-29T07:13:41.261Z,101282.80
2018-06-29T07:16:09.727Z,101280.67
2018-06-29T07:18:38.317Z,101284.36
2018-06-29T07:21:06.952Z,101279.98
2018-06-29T07:23:35.442Z,101277.45
2018-06-29T07:26:04.017Z,101279.66
2018-06-29T07:28:32.495Z,101274.50
2018-06-29T07:31:00.964Z,101266.70
2018-06-29T07:33:29.455Z,101264.06
2018-06-29T07:35:57.934Z,101265.74
2018-06-29T07:38:26.402Z,101263.32
2018-06-29T07:40:54.816Z,101258.73
2018-06-29T07:43:23.268Z,101257.67
2018-06-29T07:45:51.690Z,101254.70
2018-06-29T07:48:20.139Z,101252.98
2018-06-29T07:50:48.592Z,101254.15
2018-06-29T07:53:17.044Z,101252.44
2018-06-29T07:55:45.504Z,101249.66
2018-06-29T07:58:13.981Z,101250.92
2018-06-29T08:00:42.500Z,101248.31
2018-06-29T08:03:10.913Z,101253.52
2018-06-29T08:05:39.426Z,101249.70
2018-06-29T08:08:07.898Z,101249.51
2018-06-29T08:10:36.537Z,101252.81
2018-06-29T08:13:05.089Z,101249.86
2018-06-29T08:15:33.553Z,101253.31
2018-06-29T08:18:01.985Z,101246.16
2018-06-29T08:20:30.432Z,101245.02
2018-06-29T08:22:58.903Z,101244.24
2018-06-29T08:25:27.367Z,101234.76
2018-06-29T08:27:55.820Z,101232.48
2018-06-29T08:30:24.240Z,101232.69
2018-06-29T08:32:52.666Z,101226.99
2018-06-29T08:35:21.177Z,101224.27
2018-06-29T08:37:49.718Z,101218.52
2018-06-29T08:40:18.155Z,101200.13
2018-06-29T08:42:46.553Z,101217.17
2018-06-29T08:45:15.070Z,101221.48
2018-06-29T08:47:43.997Z,101215.80
2018-06-29T08:50:12.490Z,101218.03
2018-06-29T08:52:41.897Z,101212.73
2018-06-29T08:55:10.352Z,101219.39
2018-06-29T08:57:38.783Z,101220.98
2018-06-29T09:00:08.598Z,101213.21
2018-06-29T09:02:37.141Z,101211.27
2018-06-29T09:05:06.105Z,101210.37
2018-06-29T09:07:34.816Z,101208.16
2018-06-29T09:10:03.254Z,101212.39
2018-06-29T09:12:31.813Z,101204.20
2018-06-29T09:15:00.281Z,101207.30
2018-06-29T09:17:28.753Z,101209.95
2018-06-29T09:19:57.173Z,101215.11
2018-06-29T09:22:25.640Z,101211.83
2018-06-29T09:24:54.168Z,101209.31
2018-06-29T09:27:22.682Z,101206.16
2018-06-29T09:29:51.143Z,101195.95
2018-06-29T09:32:19.652Z,101198.99
2018-06-29T09:34:48.221Z,101199.06
2018-06-29T09:37:16.727Z,101207.70
2018-06-29T09:39:45.357Z,101207.89
2018-06-29T09:42:13.845Z,101199.21
2018-06-29T09:44:42.272Z,101201.42
2018-06-29T09:47:10.682Z,101196.30
2018-06-29T09:49:39.147Z,101194.70
2018-06-29T09:52:07.566Z,101184.11
2018-06-29T09:54:36.080Z,101185.66
2018-06-29T09:57:04.501Z,101184.01
2018-06-29T09:59:33.048Z,101182.25
2018-06-29T10:02:01.503Z,101184.11
2018-06-29T10:04:29.925Z,101180.59
2018-06-29T10:06:58.361Z,101166.70
2018-06-29T10:09:26.810Z,101167.88
2018-06-29T10:11:55.312Z,101163.61
2018-06-29T10:14:23.740Z,101165.41
2018-06-29T10:16:52.165Z,101164.21
2018-06-29T10:19:20.722Z,101164.84
2018-06-29T10:21:49.233Z,101160.14
2018-06-29T10:24:17.674Z,101160.32
2018-06-29T10:26:46.286Z,101160.58
2018-06-29T10:29:14.718Z,101161.30
2018-06-29T10:31:43.120Z,101160.94
2018-06-29T10:34:11.576Z,101157.18
2018-06-29T10:36:40.012Z,101169.45
2018-06-29T10:39:12.851Z,101153.44
2018-06-29T10:41:42.488Z,101149.47
2018-06-29T10:44:10.885Z,101152.27
2018-06-29T10:46:40.615Z,101142.70
2018-06-29T10:49:09.121Z,101153.44
2018-06-29T10:51:38.019Z,101151.12
2018-06-29T10:54:06.424Z,101146.97
2018-06-29T10:56:34.912Z,101143.78
2018-06-29T10:59:03.452Z,101144.91
2018-06-29T11:01:31.933Z,101136.68
2018-06-29T11:04:00.365Z,101144.86
2018-06-29T11:06:28.776Z,101128.02
2018-06-29T11:08:57.184Z,101129.69
2018-06-29T11:11:25.591Z,101135.20
2018-06-29T11:13:54.172Z,101133.95
2018-06-29T11:16:22.566Z,101128.72
2018-06-29T11:18:50.977Z,101132.59
2018-06-29T11:21:19.496Z,101129.70
2018-06-29T11:23:47.995Z,101123.89
2018-06-29T11:26:16.454Z,101124.31
2018-06-29T11:28:45.500Z,101126.25
2018-06-29T11:31:13.936Z,101121.63
2018-06-29T11:33:42.352Z,101113.17
2018-06-29T11:36:10.740Z,101108.00
2018-06-29T11:38:39.192Z,101100.00
2018-06-29T11:41:07.604Z,101100.02
2018-06-29T11:43:36.680Z,101106.10
2018-06-29T11:46:06.055Z,101103.42
2018-06-29T11:48:34.546Z,101105.82
2018-06-29T11:51:02.940Z,101111.85
2018-06-29T11:53:31.347Z,101097.09
2018-06-29T11:55:59.765Z,101094.48
2018-06-29T11:58:28.198Z,101093.33
2018-06-29T12:00:56.640Z,101083.16
2018-06-29T12:03:25.084Z,101088.41
2018-06-29T12:05:53.610Z,101076.14
2018-06-29T12:08:22.289Z,101087.38
2018-06-29T12:10:50.928Z,101073.39
2018-06-29T12:13:19.604Z,101082.32
2018-06-29T12:15:48.247Z,101070.38
2018-06-29T12:18:17.385Z,101065.70
2018-06-29T12:20:46.789Z,101054.02
2018-06-29T12:23:15.238Z,101059.83
2018-06-29T12:25:43.656Z,101051.44
2018-06-29T12:28:12.266Z,101045.55
2018-06-29T12:30:40.693Z,101050.69
2018-06-29T12:33:09.089Z,101046.72
2018-06-29T12:35:37.506Z,101042.95
2018-06-29T12:38:06.199Z,101037.34
2018-06-29T12:40:34.622Z,101031.30
2018-06-29T12:43:03.093Z,101032.73
2018-06-29T12:45:32.175Z,101028.44
2018-06-29T12:48:00.629Z,101031.27
2018-06-29T12:50:29.348Z,101026.71
2018-06-29T12:52:57.829Z,101019.10
2018-06-29T12:55:26.316Z,101014.84
2018-06-29T12:57:54.729Z,101007.69
2018-06-29T13:00:23.079Z,101011.96
2018-06-29T13:02:51.941Z,101005.53
2018-06-29T13:05:20.418Z,101007.05
2018-06-29T13:07:48.772Z,100997.84
2018-06-29T13:10:17.435Z,100994.01
2018-06-29T13:12:45.888Z,100998.34
2018-06-29T13:15:14.283Z,100994.16
2018-06-29T13:17:42.746Z,100995.34
2018-06-29T13:20:11.184Z,100994.47
2018-06-29T13:22:39.574Z,100986.41
2018-06-29T13:25:07.996Z,100992.41
2018-06-29T13:27:36.361Z,100983.54
2018-06-29T13:30:05.427Z,100984.55
2018-06-29T13:32:33.856Z,100982.65
2018-06-29T13:35:02.285Z,100980.81
2018-06-29T13:37:30.712Z,100972.83
2018-06-29T13:39:59.441Z,100973.41
2018-06-29T13:42:27.876Z,100974.31
2018-06-29T13:44:56.332Z,100974.62
2018-06-29T13:47:25.387Z,100975.25
2018-06-29T13:49:53.799Z,100968.02
2018-06-29T13:52:22.250Z,100960.84
2018-06-29T13:54:51.036Z,100964.81
2018-06-29T13:57:19.465Z,100960.89
2018-06-29T13:59:47.903Z,100962.89
2018-06-29T14:02:16.360Z,100963.27
2018-06-29T14:04:44.769Z,100953.91
2018-06-29T14:07:13.560Z,100953.47
2018-06-29T14:09:42.006Z,100944.58
2018-06-29T14:12:10.423Z,100943.22
2018-06-29T14:14:38.852Z,100949.92
2018-06-29T14:17:07.280Z,100930.74
2018-06-29T14:19:35.752Z,100948.91
2018-06-29T14:22:04.247Z,100934.97
2018-06-29T14:24:32.617Z,100928.27
2018-06-29T14:27:01.035Z,100923.25
2018-06-29T14:29:29.472Z,100932.59
2018-06-29T14:31:57.936Z,100929.22
2018-06-29T14:34:26.407Z,100927.46
2018-06-29T14:36:55.055Z,100928.27
2018-06-29T14:39:23.541Z,100924.28
2018-06-29T14:41:52.037Z,100926.82
2018-06-29T14:44:20.445Z,100926.78
2018-06-29T14:46:48.889Z,100925.16
2018-06-29T14:49:17.291Z,100920.83
2018-06-29T14:51:45.789Z,100917.55
2018-06-29T14:54:14.187Z,100916.30
2018-06-29T14:56:42.616Z,100909.70
2018-06-29T14:59:11.012Z,100905.42
2018-06-29T15:01:39.409Z,100904.93
2018-06-29T15:04:07.866Z,100901.14
2018-06-29T15:06:36.305Z,100903.50
2018-06-29T15:09:07.732Z,100903.23
2018-06-29T15:11:36.232Z,100890.89
2018-06-29T15:14:04.691Z,100893.23
2018-06-29T15:16:33.170Z,100888.80
2018-06-29T15:19:02.200Z,100886.09
2018-06-29T15:21:30.676Z,100879.39
2018-06-29T15:23:59.935Z,100884.00
2018-06-29T15:26:28.319Z,100889.67
2018-06-29T15:28:56.896Z,100882.03
2018-06-29T15:31:25.418Z,100876.45
2018-06-29T15:33:53.799Z,100868.28
2018-06-29T15:36:23.248Z,100880.02
2018-06-29T15:38:51.693Z,100870.51
2018-06-29T15:41:20.166Z,100870.78
2018-06-29T15:43:48.582Z,100873.95
2018-06-29T15:46:17.078Z,100870.54
2018-06-29T15:48:45.462Z,100865.16
2018-06-29T15:51:13.864Z,100862.52
2018-06-29T15:53:42.276Z,100866.17
2018-06-29T15:56:11.113Z,100867.22
2018-06-29T15:58:39.534Z,100863.87
2018-06-29T16:01:08.015Z,100861.06
2018-06-29T16:03:36.525Z,100865.29
2018-06-29T16:06:05.184Z,100859.53
2018-06-29T16:08:34.221Z,100856.05
2018-06-29T16:11:02.678Z,100855.47
2018-06-29T16:13:31.097Z,100858.74
2018-06-29T16:15:59.674Z,100853.23
2018-06-29T16:18:28.121Z,100850.76
2018-06-29T16:20:56.658Z,100848.07
2018-06-29T16:23:25.866Z,100850.22
2018-06-29T16:25:54.295Z,100841.80
2018-06-29T16:28:22.728Z,100846.31
2018-06-29T16:30:51.173Z,100856.66
2018-06-29T16:33:19.616Z,100843.84
2018-06-29T16:35:48.045Z,100853.94
2018-06-29T16:38:16.491Z,100844.05
2018-06-29T16:40:44.949Z,100849.02
2018-06-29T16:43:13.335Z,100846.92
2018-06-29T16:45:41.752Z,100841.92
2018-06-29T16:48:10.123Z,100842.44
2018-06-29T16:50:38.584Z,100845.62
2018-06-29T16:54:36.432Z,100849.95
2018-06-29T16:57:04.899Z,100845.64
2018-06-29T16:59:33.297Z,100842.64
2018-06-29T17:02:01.804Z,100835.66
2018-06-29T17:04:30.267Z,100842.44
2018-06-29T17:07:00.729Z,100840.02
2018-06-29T17:09:29.163Z,100838.11
2018-06-29T17:11:57.688Z,100841.97
2018-06-29T17:14:26.342Z,100845.20
2018-06-29T17:16:54.786Z,100840.33
2018-06-29T17:19:23.209Z,100842.09
2018-06-29T17:21:52.651Z,100842.17
2018-06-29T17:24:21.361Z,100844.73
2018-06-29T17:26:49.795Z,100841.91
2018-06-29T17:29:18.214Z,100842.76
2018-06-29T17:31:47.020Z,100834.20
2018-06-29T17:34:15.554Z,100835.16
2018-06-29T17:36:44.132Z,100834.12
2018-06-29T17:39:12.836Z,100836.58
2018-06-29T17:41:41.232Z,100837.62
2018-06-29T17:44:09.738Z,100843.51
2018-06-29T17:46:38.392Z,100844.28
2018-06-29T17:49:06.906Z,100843.91
2018-06-29T17:51:35.324Z,100848.81
2018-06-29T17:54:03.785Z,100839.02
2018-06-29T17:56:32.249Z,100842.88
2018-06-29T17:59:01.473Z,100848.92
2018-06-29T18:01:29.909Z,100836.48
2018-06-29T18:03:58.322Z,100835.88
2018-06-29T18:06:26.787Z,100835.20
2018-06-29T18:08:55.188Z,100840.78
2018-06-29T18:11:23.646Z,100844.54
2018-06-29T18:13:52.085Z,100835.31
2018-06-29T18:16:20.515Z,100837.47
2018-06-29T18:18:48.969Z,100839.50
2018-06-29T18:21:17.440Z,100840.34
2018-06-29T18:23:45.908Z,100836.52
2018-06-29T18:26:15.152Z,100832.73
2018-06-29T18:28:43.620Z,100843.75
2018-06-29T18:31:12.117Z,100843.08
2018-06-29T18:33:40.513Z,100837.66
2018-06-29T18:36:08.992Z,100836.81
2018-06-29T18:38:37.373Z,100834.15
2018-06-29T18:41:05.796Z,100837.25
2018-06-29T18:43:34.273Z,100837.40
2018-06-29T18:46:02.693Z,100840.30
2018-06-29T18:48:31.404Z,100842.45
2018-06-29T18:50:59.831Z,100838.94
2018-06-29T18:53:28.564Z,100840.19
2018-06-29T18:55:57.252Z,100843.89
2018-06-29T18:58:25.747Z,100840.03
2018-06-29T19:00:54.239Z,100847.22
2018-06-29T19:03:22.713Z,100846.26
2018-06-29T19:05:51.160Z,100844.07
2018-06-29T19:08:19.596Z,100843.34
2018-06-29T19:10:48.025Z,100843.22
2018-06-29T19:13:16.466Z,100851.97
2018-06-29T19:15:44.956Z,100824.89
2018-06-29T19:18:13.440Z,100849.97
2018-06-29T19:20:41.813Z,100847.30
2018-06-29T19:23:10.259Z,100845.91
2018-06-29T19:25:38.672Z,100852.36
2018-06-29T19:28:07.095Z,100861.20
2018-06-29T19:30:35.623Z,100859.89
2018-06-29T19:33:04.897Z,100855.60
2018-06-29T19:35:33.352Z,100863.64
2018-06-29T19:38:01.808Z,100861.43
2018-06-29T19:40:30.195Z,100859.67
2018-06-29T19:42:58.644Z,100868.30
2018-06-29T19:45:27.084Z,100867.08
2018-06-29T19:47:55.561Z,100862.73
2018-06-29T19:50:23.967Z,100869.22
2018-06-29T19:52:52.512Z,100872.97
2018-06-29T19:55:20.941Z,100874.52
2018-06-29T19:57:49.381Z,100865.00
2018-06-29T20:00:17.908Z,100872.38
2018-06-29T20:02:46.310Z,100876.27
2018-06-29T20:05:14.772Z,100873.97
2018-06-29T20:07:43.092Z,100877.27
2018-06-29T20:10:11.623Z,100876.78
2018-06-29T20:12:40.984Z,100879.12
2018-06-29T20:15:10.009Z,100879.66
2018-06-29T20:17:38.420Z,100892.81
2018-06-29T20:20:08.573Z,100889.98
2018-06-29T20:22:36.928Z,100894.98
2018-06-29T20:25:05.707Z,100895.09
2018-06-29T20:27:34.566Z,100894.70
2018-06-29T20:30:03.119Z,100894.34
2018-06-29T20:32:31.793Z,100901.91
2018-06-29T20:35:00.232Z,100897.09
2018-06-29T20:37:28.899Z,100900.48
2018-06-29T20:39:57.315Z,100903.09
2018-06-29T20:42:25.764Z,100909.63
2018-06-29T20:44:54.184Z,100908.85
2018-06-29T20:47:22.591Z,100909.78
2018-06-29T20:49:51.003Z,100915.27
2018-06-29T20:52:19.556Z,100919.59
2018-06-29T20:54:47.990Z,100913.16
2018-06-29T20:57:16.441Z,100916.84
2018-06-29T20:59:44.909Z,100919.13
2018-06-29T21:02:13.300Z,100920.38
2018-06-29T21:04:41.848Z,100922.41
2018-06-29T21:07:10.223Z,100919.56
2018-06-29T21:09:38.705Z,100918.91
2018-06-29T21:12:07.198Z,100920.39
2018-06-29T21:14:36.187Z,100923.82
2018-06-29T21:17:04.648Z,100923.46
2018-06-29T21:19:33.112Z,100920.45
2018-06-29T21:22:01.553Z,100922.28
2018-06-29T21:24:30.037Z,100925.13
2018-06-29T21:26:58.747Z,100919.50
2018-06-29T21:29:27.169Z,100919.70
2018-06-29T21:31:55.619Z,100923.84
2018-06-29T21:34:24.044Z,100926.07
2018-06-29T21:36:52.474Z,100920.12
2018-06-29T21:39:20.865Z,100922.59
2018-06-29T21:41:49.276Z,100922.72
2018-06-29T21:44:17.689Z,100922.81
2018-06-29T21:46:46.093Z,100895.58
2018-06-29T21:49:14.552Z,100921.24
2018-06-29T21:51:43.105Z,100919.80
2018-06-29T21:54:11.604Z,100920.92
2018-06-29T21:56:40.086Z,100920.13
2018-06-29T21:59:08.681Z,100924.11
2018-06-29T22:01:37.133Z,100928.09
2018-06-29T22:04:05.626Z,100926.58
2018-06-29T22:06:34.044Z,100929.25
2018-06-29T22:09:02.632Z,100934.66
2018-06-29T22:11:31.069Z,100927.40
2018-06-29T22:14:00.208Z,100929.22
2018-06-29T22:16:28.632Z,100936.84
2018-06-29T22:18:57.111Z,100935.16
2018-06-29T22:21:25.543Z,100928.30
2018-06-29T22:23:53.967Z,100930.30
2018-06-29T22:26:22.412Z,100932.37
2018-06-29T22:28:52.156Z,100935.84
2018-06-29T22:31:20.655Z,100931.98
2018-06-29T22:33:49.644Z,100927.94
2018-06-29T22:36:18.039Z,100931.00
2018-06-29T22:38:46.814Z,100929.23
2018-06-29T22:41:15.293Z,100926.46
2018-06-29T22:43:44.344Z,100926.94
2018-06-29T22:46:12.823Z,100926.94
2018-06-29T22:48:41.284Z,100923.08
2018-06-29T22:51:10.009Z,100919.84
2018-06-29T22:53:38.413Z,100921.49
2018-06-29T22:56:06.837Z,100925.86
2018-06-29T22:58:35.276Z,100925.92
2018-06-29T23:01:03.692Z,100926.94
2018-06-29T23:03:37.426Z,100921.40
2018-06-29T23:06:05.868Z,100920.63
2018-06-29T23:08:34.248Z,100928.89
2018-06-29T23:11:02.666Z,100927.19
2018-06-29T23:13:31.105Z,100926.28
2018-06-29T23:15:59.535Z,100924.27
2018-06-29T23:18:27.973Z,100926.58
2018-06-29T23:20:56.409Z,100920.96
2018-06-29T23:23:24.817Z,100926.13
2018-06-29T23:25:53.236Z,100927.75
2018-06-29T23:28:21.660Z,100928.73
2018-06-29T23:30:50.021Z,100932.70
2018-06-29T23:33:18.459Z,100931.90
2018-06-29T23:35:46.853Z,100933.70
2018-06-29T23:38:15.331Z,100933.81
2018-06-29T23:40:43.734Z,100931.36
2018-06-29T23:43:12.323Z,100933.91
2018-06-29T23:45:40.720Z,100935.57
2018-06-29T23:48:09.155Z,100934.37
2018-06-29T23:50:37.723Z,100933.98
2018-06-29T23:53:06.161Z,100926.58
2018-06-29T23:55:34.844Z,100929.54
2018-06-29T23:58:03.230Z,100924.38
